ePrivacy and GPDR Cookie Consent by Cookie Consent
EmailTwitter


Surface observations / United Kingdom / EGLC

Regions: Quebec | Canada | USA | Europe | France | UK | Elsewhere
Station
Display
Info & Location for EGLC | Help decoding METAR

Weather Conditions observed on 2021/04/16 at 01:20 UTC at LONDON CITY AIRP, UK (EGLC)

Sky conditions: few clouds.

Temperature: 3.0 Celsius.

Dewpoint: 1.0 Celsius.

Relative Humidity: 87%

Winds: North at 6 km/h or 3 knots.

Mean Sea level Pressure: 103.20 kilopascals.

Horizontal visibility: 6.21 statute miles or 9.94 kilometers.

Coded METAR:

EGLC 160120Z AUTO 36003KT 9999 FEW016 03/01 Q1032=